Catoosa, OK (74015)

05:39 CDT le 03 août 2015 (GMT -0500)
Catoosa | | Change Station
CLOSE
Current Station
Stations météorologiques personnelles
Location: Catoosa, OK
Altitude: 636 ft
Stations météo à proximité

Alt. 636 ft 36.18 °N, 95.75 °W | Updated 2 seconds ago

Partiellement nuageux
Partiellement nuageux
71.3 ° F
Paraît 71.3 ° F
N
0.0
Vent Variable Vent de SSE
Gusts 0.0 mph

Aujourd'hui
Haut(e) -- | Bas -- ° F
--% Risque de précip.
Hier
Haut(e) -- | Bas -- ° F
Precip. -- pouce
6:31 AM 8:26 PM
Lune gibbeuse décroissante, 87% visible
Pression 29.88 pouce
Visibilité 10.0 Miles terrestres
Nuages Nuages épars 8500 ft
Point de rosée 69 ° F
Humidité 93%
Précipitations 0.00 pouce
Profondeur de la couche neigeuse Non disponible.
UV 0 sur 12
Pollen 4.60 sur 12
Qualité de l'air Non disponible.
Flu Activity Non disponible.
METAR KTUL 030953Z 15003KT 10SM SCT085 24/20 A2990 RMK AO2 SLP116 T02440200 $

More Conditions Fewer Conditions

Pression 29.88 pouce
Visibilité 10.0 Miles terrestres
Nuages Nuages épars 8500 ft
Point de rosée 69 ° F
Humidité 93%
Précipitations 0.00 pouce
Profondeur de la couche neigeuse Non disponible.
UV 0 sur 12
Pollen 4.60 sur 12
Qualité de l'air Non disponible.
Flu Activity Non disponible.
METAR KTUL 030953Z 15003KT 10SM SCT085 24/20 A2990 RMK AO2 SLP116 T02440200 $

More Conditions Fewer Conditions

10-Day Weather Forecast

×

Almanac

Astronomie

Aug. 03, 2015 Lever Coucher
Temps réel
Crépuscule civil
Crépuscule nautique
Crépuscule astronomique
Lune
Durée de lumière visible
Longueur du jour
Tomorrow will be .
, % of the Moon is Illuminated

Extrêmes aujourd'hui

State Highs State Lows

Community

WunderPhotos

Upload Photos

1,843,610 Photos téléchargées !

WunderBlogs® & News

Nearby

Qualité de l'air

  Qualité de l'air Indice de la qualité de l'air Polluant
Not available.

Épaisseur de neige

Station Depth Altitude

Activité sismique

Ville Distance Mag. Time & Date
Minimum magnitude displayed is 2.5.

Températures des eaux côtières

Lieu Température

Stations

Stations météo à proximité

Emplacement de la station Température Refroidissement éolien Point de rosée Humidité Vent Precip. Alt. Mise à jour Type